createdAt,value
2023-04-18T00:00:40.677Z,44.96
2023-04-18T00:01:40.734Z,44.99
2023-04-18T00:02:40.924Z,44.94
2023-04-18T00:03:40.947Z,44.99
2023-04-18T00:04:40.856Z,45.07
2023-04-18T00:05:40.857Z,44.98
2023-04-18T00:06:40.938Z,45.03
2023-04-18T00:07:40.981Z,45.15
2023-04-18T00:08:40.974Z,45.17
2023-04-18T00:09:41.064Z,45.21
2023-04-18T00:10:41.088Z,45.34
2023-04-18T00:11:41.098Z,45.23
2023-04-18T00:12:41.173Z,45.24
2023-04-18T00:13:41.171Z,45.48
2023-04-18T00:14:41.258Z,45.45
2023-04-18T00:15:41.275Z,45.52
2023-04-18T00:16:41.406Z,45.42
2023-04-18T00:17:41.479Z,45.62
2023-04-18T00:18:41.402Z,45.73
2023-04-18T00:19:41.449Z,45.54
2023-04-18T00:20:41.506Z,45.36
2023-04-18T00:21:41.546Z,45.32
2023-04-18T00:22:41.581Z,45.12
2023-04-18T00:23:41.635Z,44.88
2023-04-18T00:24:41.681Z,44.93
2023-04-18T00:25:42.539Z,44.76
2023-04-18T00:26:41.697Z,44.78
2023-04-18T00:27:41.749Z,44.64
2023-04-18T00:28:41.726Z,44.69
2023-04-18T00:29:41.699Z,44.59
2023-04-18T00:30:41.768Z,44.64
2023-04-18T00:31:41.804Z,44.69
2023-04-18T00:32:41.783Z,44.79
2023-04-18T00:33:41.773Z,45.17
2023-04-18T00:34:41.754Z,45.19
2023-04-18T00:35:41.831Z,45.16
2023-04-18T00:36:41.865Z,45.18
2023-04-18T00:37:41.941Z,45.46
2023-04-18T00:38:41.966Z,45.26
2023-04-18T00:39:42.005Z,45.17
2023-04-18T00:40:42.024Z,45.36
2023-04-18T00:41:42.098Z,45.35
2023-04-18T00:42:42.156Z,45.30
2023-04-18T00:43:42.261Z,45.42
2023-04-18T00:44:42.262Z,45.48
2023-04-18T00:45:42.364Z,45.75
2023-04-18T00:46:42.390Z,45.55
2023-04-18T00:47:42.534Z,45.62
2023-04-18T00:48:42.490Z,45.78
2023-04-18T00:49:42.536Z,45.65
2023-04-18T00:50:42.627Z,45.65
2023-04-18T00:51:42.686Z,45.73
2023-04-18T00:52:42.745Z,45.78
2023-04-18T00:53:42.753Z,45.79
2023-04-18T00:54:42.773Z,46.01
2023-04-18T00:55:42.836Z,46.01
2023-04-18T00:56:42.904Z,46.14
2023-04-18T00:57:42.933Z,46.13
2023-04-18T00:58:43.007Z,46.14
2023-04-18T00:59:43.065Z,46.23
2023-04-18T01:00:43.157Z,45.96
2023-04-18T01:01:43.306Z,46.03
2023-04-18T01:02:43.381Z,46.07
2023-04-18T01:03:43.516Z,45.88
2023-04-18T01:04:43.398Z,45.60
2023-04-18T01:05:43.405Z,45.50
2023-04-18T01:06:43.454Z,45.70
2023-04-18T01:07:43.470Z,45.90
2023-04-18T01:08:43.506Z,45.67
2023-04-18T01:09:43.587Z,45.35
2023-04-18T01:10:43.596Z,45.00
2023-04-18T01:11:43.690Z,44.85
2023-04-18T01:12:43.678Z,44.80
2023-04-18T01:13:43.666Z,44.71
2023-04-18T01:14:43.683Z,44.71
2023-04-18T01:15:43.824Z,44.87
2023-04-18T01:16:43.733Z,44.95
2023-04-18T01:17:43.830Z,44.80
2023-04-18T01:18:43.790Z,44.99
2023-04-18T01:19:43.852Z,45.03
2023-04-18T01:20:43.886Z,44.93
2023-04-18T01:21:44.025Z,44.78
2023-04-18T01:22:44.049Z,44.66
2023-04-18T01:23:44.030Z,44.52
2023-04-18T01:24:44.118Z,44.53
2023-04-18T01:25:44.164Z,44.48
2023-04-18T01:26:44.203Z,44.57
2023-04-18T01:27:44.215Z,44.38
2023-04-18T01:28:44.228Z,44.68
2023-04-18T01:29:44.299Z,44.28
2023-04-18T01:30:44.291Z,44.63
2023-04-18T01:31:44.399Z,44.71
2023-04-18T01:32:44.388Z,44.72
2023-04-18T01:33:44.454Z,44.95
2023-04-18T01:34:44.482Z,44.94
2023-04-18T01:35:44.522Z,44.57
2023-04-18T01:36:44.603Z,44.67
2023-04-18T01:37:44.594Z,44.51
2023-04-18T01:38:44.639Z,44.60
2023-04-18T01:39:44.659Z,44.55
2023-04-18T01:40:44.658Z,44.31
2023-04-18T01:41:44.661Z,44.24
2023-04-18T01:42:44.737Z,44.34
2023-04-18T01:43:44.740Z,44.29
2023-04-18T01:44:44.734Z,44.42
2023-04-18T01:45:44.777Z,44.51
2023-04-18T01:46:44.800Z,44.33
2023-04-18T01:47:44.958Z,44.01
2023-04-18T01:48:44.871Z,43.96
2023-04-18T01:49:44.986Z,43.65
2023-04-18T01:50:44.991Z,43.99
2023-04-18T01:51:45.044Z,44.11
2023-04-18T01:52:45.125Z,44.08
2023-04-18T01:53:45.127Z,44.25
2023-04-18T01:54:45.177Z,43.97
2023-04-18T01:55:45.225Z,44.00
2023-04-18T01:56:45.295Z,44.16
2023-04-18T01:57:45.310Z,44.28
2023-04-18T01:58:45.362Z,44.26
2023-04-18T01:59:45.390Z,44.16
2023-04-18T02:00:45.507Z,44.06
2023-04-18T02:01:45.604Z,44.34
2023-04-18T02:02:46.159Z,44.14
2023-04-18T02:03:45.853Z,44.23
2023-04-18T02:04:45.719Z,44.26
2023-04-18T02:05:45.714Z,43.87
2023-04-18T02:06:45.764Z,43.69
2023-04-18T02:07:45.865Z,43.74
2023-04-18T02:08:45.875Z,43.94
2023-04-18T02:09:45.899Z,43.75
2023-04-18T02:10:45.998Z,43.59
2023-04-18T02:11:46.062Z,43.61
2023-04-18T02:12:46.137Z,44.02
2023-04-18T02:13:46.126Z,44.18
2023-04-18T02:14:46.189Z,44.16
2023-04-18T02:15:46.229Z,43.98
2023-04-18T02:16:46.413Z,44.02
2023-04-18T02:17:46.325Z,44.20
2023-04-18T02:18:46.310Z,43.91
2023-04-18T02:19:46.351Z,43.88
2023-04-18T02:20:46.412Z,43.74
2023-04-18T02:21:46.437Z,44.40
2023-04-18T02:22:46.478Z,44.25
2023-04-18T02:23:46.562Z,44.26
2023-04-18T02:24:46.506Z,44.36
2023-04-18T02:25:46.569Z,44.38
2023-04-18T02:26:46.608Z,44.36
2023-04-18T02:27:46.681Z,43.81
2023-04-18T02:28:46.689Z,43.41
2023-04-18T02:29:46.747Z,43.57
2023-04-18T02:30:46.744Z,43.49
2023-04-18T02:31:46.852Z,43.85
2023-04-18T02:32:46.904Z,43.49
2023-04-18T02:33:46.858Z,43.64
2023-04-18T02:34:46.925Z,43.43
2023-04-18T02:35:46.943Z,42.94
2023-04-18T02:36:46.957Z,43.11
2023-04-18T02:37:47.009Z,43.19
2023-04-18T02:38:47.019Z,43.38
2023-04-18T02:39:47.015Z,43.48
2023-04-18T02:40:47.066Z,42.68
2023-04-18T02:41:47.139Z,41.62
2023-04-18T02:42:47.144Z,41.43
2023-04-18T02:43:47.139Z,41.19
2023-04-18T02:44:47.141Z,41.31
2023-04-18T02:45:47.206Z,41.54
2023-04-18T02:46:47.171Z,41.78
2023-04-18T02:47:55.182Z,42.09
2023-04-18T02:48:48.218Z,42.31
2023-04-18T02:49:47.217Z,42.33
2023-04-18T02:50:47.205Z,42.32
2023-04-18T02:51:47.205Z,42.07
2023-04-18T02:52:47.154Z,41.90
2023-04-18T02:53:47.169Z,41.80
2023-04-18T02:54:47.118Z,41.66
2023-04-18T02:55:47.158Z,41.56
2023-04-18T02:56:47.124Z,41.52
2023-04-18T02:57:47.127Z,41.59
2023-04-18T02:58:47.098Z,41.53
2023-04-18T02:59:47.105Z,41.74
2023-04-18T03:00:47.111Z,41.69
2023-04-18T03:01:47.162Z,41.53
2023-04-18T03:02:47.156Z,41.62
2023-04-18T03:03:47.178Z,41.43
2023-04-18T03:04:47.172Z,41.39
2023-04-18T03:05:47.145Z,41.48
2023-04-18T03:06:47.145Z,41.36
2023-04-18T03:07:47.163Z,41.46
2023-04-18T03:08:47.155Z,41.53
2023-04-18T03:09:47.166Z,41.79
2023-04-18T03:10:47.191Z,41.93
2023-04-18T03:11:47.181Z,41.69
2023-04-18T03:12:47.183Z,41.32
2023-04-18T03:13:47.201Z,41.21
2023-04-18T03:14:47.249Z,41.44
2023-04-18T03:15:47.288Z,41.33
2023-04-18T03:16:47.323Z,41.45
2023-04-18T03:17:47.488Z,41.48
2023-04-18T03:18:47.392Z,41.40
2023-04-18T03:19:47.372Z,41.49
2023-04-18T03:20:47.411Z,41.74
2023-04-18T03:21:47.460Z,41.40
2023-04-18T03:22:47.486Z,41.41
2023-04-18T03:23:47.515Z,41.22
2023-04-18T03:24:47.649Z,41.20
2023-04-18T03:25:47.694Z,41.44
2023-04-18T03:26:47.685Z,41.54
2023-04-18T03:27:47.786Z,41.45
2023-04-18T03:28:47.705Z,41.31
2023-04-18T03:29:47.759Z,41.30
2023-04-18T03:30:47.818Z,41.42
2023-04-18T03:31:47.877Z,41.33
2023-04-18T03:32:48.023Z,41.15
2023-04-18T03:33:47.998Z,41.10
2023-04-18T03:34:48.056Z,41.18
2023-04-18T03:35:48.054Z,41.42
2023-04-18T03:36:48.407Z,40.91
2023-04-18T03:37:48.074Z,40.98
2023-04-18T03:38:48.083Z,40.85
2023-04-18T03:39:48.105Z,41.19
2023-04-18T03:40:48.146Z,41.08
2023-04-18T03:41:48.171Z,40.89
2023-04-18T03:42:48.232Z,40.90
2023-04-18T03:43:48.275Z,40.91
2023-04-18T03:44:48.275Z,41.05
2023-04-18T03:45:48.440Z,41.00
2023-04-18T03:46:48.452Z,41.12
2023-04-18T03:47:48.589Z,41.38
2023-04-18T03:48:48.479Z,41.03
2023-04-18T03:49:48.518Z,40.96
2023-04-18T03:50:48.531Z,40.74
2023-04-18T03:51:48.630Z,40.73
2023-04-18T03:52:48.700Z,40.61
2023-04-18T03:53:48.813Z,40.64
2023-04-18T03:54:48.833Z,40.73
2023-04-18T03:55:48.856Z,40.89
2023-04-18T03:56:48.979Z,40.64
2023-04-18T03:57:49.043Z,40.68
2023-04-18T03:58:49.060Z,40.67
2023-04-18T03:59:49.149Z,40.75
2023-04-18T04:00:49.262Z,40.61
2023-04-18T04:01:49.287Z,40.60
2023-04-18T04:02:49.418Z,40.82
2023-04-18T04:03:49.564Z,40.69
2023-04-18T04:04:49.435Z,40.51
2023-04-18T04:05:49.451Z,40.69
2023-04-18T04:06:49.600Z,40.75
2023-04-18T04:07:49.660Z,40.98
2023-04-18T04:08:49.631Z,40.64
2023-04-18T04:09:49.692Z,40.80
2023-04-18T04:10:49.675Z,40.93
2023-04-18T04:11:49.640Z,41.31
2023-04-18T04:12:49.734Z,41.20
2023-04-18T04:13:49.767Z,40.76
2023-04-18T04:14:49.824Z,40.61
2023-04-18T04:15:49.901Z,40.63
2023-04-18T04:16:50.128Z,40.62
2023-04-18T04:17:50.040Z,40.39
2023-04-18T04:18:50.046Z,40.39
2023-04-18T04:19:51.047Z,40.39
2023-04-18T04:20:50.214Z,40.37
2023-04-18T04:21:50.285Z,40.64
2023-04-18T04:22:50.318Z,40.68
2023-04-18T04:23:50.331Z,40.44
2023-04-18T04:24:50.463Z,40.42
2023-04-18T04:25:50.458Z,40.39
2023-04-18T04:26:50.533Z,40.24
2023-04-18T04:27:50.570Z,40.33
2023-04-18T04:28:50.666Z,40.32
2023-04-18T04:29:50.680Z,40.72
2023-04-18T04:30:50.831Z,40.54
2023-04-18T04:31:50.888Z,40.49
2023-04-18T04:32:50.906Z,40.80
2023-04-18T04:33:50.930Z,40.45
2023-04-18T04:34:50.988Z,40.68
2023-04-18T04:35:51.051Z,40.49
2023-04-18T04:36:51.122Z,40.39
2023-04-18T04:37:51.163Z,40.30
2023-04-18T04:38:51.218Z,40.02
2023-04-18T04:39:51.281Z,39.85
2023-04-18T04:40:51.273Z,39.60
2023-04-18T04:41:51.340Z,39.53
2023-04-18T04:42:51.427Z,39.82
2023-04-18T04:43:51.495Z,39.63
2023-04-18T04:44:51.538Z,40.16
2023-04-18T04:45:51.746Z,39.70
2023-04-18T04:46:51.615Z,39.68
2023-04-18T04:47:51.700Z,39.66
2023-04-18T04:48:51.750Z,39.67
2023-04-18T04:49:51.837Z,39.91
2023-04-18T04:50:51.865Z,39.81
2023-04-18T04:51:51.970Z,40.16
2023-04-18T04:52:52.011Z,40.17
2023-04-18T04:53:52.076Z,40.08
2023-04-18T04:54:52.089Z,40.00
2023-04-18T04:55:52.177Z,40.24
2023-04-18T04:56:52.216Z,40.45
2023-04-18T04:57:52.258Z,40.59
2023-04-18T04:58:52.264Z,40.77
2023-04-18T04:59:52.308Z,41.24
2023-04-18T05:02:21.336Z,40.87
2023-04-18T05:03:12.663Z,40.77
2023-04-18T05:04:12.565Z,40.86
2023-04-18T05:05:12.127Z,40.93
2023-04-18T05:06:12.120Z,40.88
2023-04-18T05:07:12.116Z,41.07
2023-04-18T05:08:12.202Z,41.24
2023-04-18T05:09:12.098Z,41.11
2023-04-18T05:10:12.369Z,41.05
2023-04-18T05:11:12.062Z,41.06
2023-04-18T05:12:12.064Z,41.15
2023-04-18T05:13:12.093Z,41.22
2023-04-18T05:14:12.256Z,41.28
2023-04-18T05:15:12.100Z,41.42
2023-04-18T05:16:12.096Z,41.13
2023-04-18T05:17:12.003Z,41.20
2023-04-18T05:18:12.051Z,41.40
2023-04-18T05:19:12.037Z,41.34
2023-04-18T05:20:12.036Z,41.01
2023-04-18T05:21:11.985Z,41.01
2023-04-18T05:22:12.021Z,41.04
2023-04-18T05:23:11.993Z,41.26
2023-04-18T05:24:12.128Z,41.51
2023-04-18T05:25:11.961Z,41.75
2023-04-18T05:26:12.023Z,41.69
2023-04-18T05:27:11.971Z,41.21
2023-04-18T05:28:12.004Z,41.12
2023-04-18T05:29:12.018Z,41.44
2023-04-18T05:30:12.027Z,41.64
2023-04-18T05:31:12.076Z,41.42
2023-04-18T05:32:11.954Z,41.30
2023-04-18T05:33:12.122Z,41.27
2023-04-18T05:35:12.325Z,41.87
2023-04-18T05:36:12.251Z,41.83
2023-04-18T05:37:12.561Z,41.23
2023-04-18T05:38:12.680Z,41.32
2023-04-18T05:39:12.370Z,41.27
2023-04-18T05:40:12.561Z,41.04
2023-04-18T05:41:12.464Z,40.73
2023-04-18T05:42:12.629Z,40.76
2023-04-18T05:43:12.639Z,41.14
2023-04-18T05:44:12.822Z,41.04
2023-04-18T05:45:12.704Z,40.81
2023-04-18T05:47:32.573Z,40.93
2023-04-18T05:48:32.472Z,40.86
2023-04-18T05:49:32.488Z,40.73
2023-04-18T05:50:32.272Z,40.66
2023-04-18T05:51:32.247Z,40.61
2023-04-18T05:52:32.226Z,40.43
2023-04-18T05:53:32.466Z,40.50
2023-04-18T05:54:32.196Z,40.63
2023-04-18T05:55:32.222Z,40.66
2023-04-18T05:56:32.215Z,40.53
2023-04-18T05:57:32.171Z,40.69
2023-04-18T05:58:32.261Z,40.65
2023-04-18T05:59:32.184Z,40.66
2023-04-18T06:00:32.173Z,40.63
2023-04-18T06:01:32.218Z,40.80
2023-04-18T06:02:32.409Z,40.60
2023-04-18T06:03:32.433Z,40.43
2023-04-18T06:04:32.268Z,40.45
2023-04-18T06:05:32.277Z,40.39
2023-04-18T06:06:32.109Z,40.23
2023-04-18T06:07:32.141Z,40.21
2023-04-18T06:08:32.220Z,40.19
2023-04-18T06:09:32.107Z,40.21
2023-04-18T06:10:32.120Z,40.16
2023-04-18T06:11:32.110Z,40.10
2023-04-18T06:12:32.181Z,40.07
2023-04-18T06:13:32.118Z,40.21
2023-04-18T06:14:32.087Z,40.51
2023-04-18T06:15:32.075Z,40.28
2023-04-18T06:16:32.115Z,40.55
2023-04-18T06:17:32.085Z,40.23
2023-04-18T06:18:33.511Z,40.32
2023-04-18T06:19:32.053Z,40.36
2023-04-18T06:20:32.050Z,40.80
2023-04-18T06:21:32.104Z,40.84
2023-04-18T06:22:32.035Z,40.83
2023-04-18T06:23:32.507Z,40.73
2023-04-18T06:24:31.996Z,41.04
2023-04-18T06:25:32.098Z,40.62
2023-04-18T06:26:32.023Z,40.64
2023-04-18T06:27:32.190Z,40.60
2023-04-18T06:28:32.009Z,40.86
2023-04-18T06:29:32.047Z,40.91
2023-04-18T06:30:31.988Z,40.56
2023-04-18T06:31:32.057Z,40.56
2023-04-18T06:32:31.975Z,41.10
2023-04-18T06:33:32.054Z,41.00
2023-04-18T06:34:32.028Z,40.91
2023-04-18T06:35:31.970Z,41.33
2023-04-18T06:36:31.970Z,41.23
2023-04-18T06:37:31.976Z,40.97
2023-04-18T06:38:31.986Z,41.19
2023-04-18T06:39:32.001Z,41.26
2023-04-18T06:40:32.097Z,41.47
2023-04-18T06:41:31.914Z,40.97
2023-04-18T06:42:31.991Z,41.10
2023-04-18T06:43:31.871Z,41.05
2023-04-18T06:44:31.989Z,41.14
2023-04-18T06:45:32.252Z,41.55
2023-04-18T06:46:31.976Z,41.87
2023-04-18T06:47:43.156Z,41.66
2023-04-18T06:48:32.066Z,41.59
2023-04-18T06:49:33.210Z,41.73
2023-04-18T06:50:31.982Z,41.45
2023-04-18T06:51:31.964Z,41.26
2023-04-18T06:52:31.981Z,41.60
2023-04-18T06:53:32.041Z,41.88
2023-04-18T06:54:32.985Z,41.97
2023-04-18T06:55:32.161Z,41.65
2023-04-18T06:56:33.466Z,41.72
2023-04-18T06:57:32.366Z,41.88
2023-04-18T06:58:32.235Z,41.82
2023-04-18T06:59:32.659Z,41.83
2023-04-18T07:00:32.209Z,41.39
2023-04-18T07:01:32.245Z,41.56
2023-04-18T07:02:32.321Z,41.66
2023-04-18T07:03:32.275Z,41.91
2023-04-18T07:04:32.496Z,41.71
2023-04-18T07:05:32.193Z,41.12
2023-04-18T07:06:32.171Z,41.17
2023-04-18T07:07:32.150Z,41.21
2023-04-18T07:08:32.131Z,41.68
2023-04-18T07:09:32.552Z,42.12
2023-04-18T07:10:32.856Z,42.26
2023-04-18T07:11:32.121Z,42.70
2023-04-18T07:12:32.421Z,42.64
2023-04-18T07:13:32.069Z,42.30
2023-04-18T07:14:34.195Z,42.10
2023-04-18T07:15:32.086Z,41.89
2023-04-18T07:16:32.433Z,42.05
2023-04-18T07:17:32.113Z,41.86
2023-04-18T07:18:38.106Z,41.85
2023-04-18T07:19:33.523Z,41.82
2023-04-18T07:20:32.184Z,41.51
2023-04-18T07:21:32.029Z,41.69
2023-04-18T07:22:32.089Z,41.96
2023-04-18T07:23:32.090Z,41.93
2023-04-18T07:24:32.090Z,41.87
2023-04-18T07:25:32.062Z,41.67
2023-04-18T07:26:32.210Z,41.96
2023-04-18T07:27:31.975Z,42.02
2023-04-18T07:28:32.009Z,41.96
2023-04-18T07:29:32.538Z,42.47
2023-04-18T07:30:32.070Z,42.54
2023-04-18T07:31:32.040Z,43.06
2023-04-18T07:32:31.978Z,41.76
2023-04-18T07:33:31.959Z,41.86
2023-04-18T07:34:32.564Z,41.40
2023-04-18T07:35:32.075Z,41.79
2023-04-18T07:36:32.175Z,41.28
2023-04-18T07:37:32.242Z,41.32
2023-04-18T07:38:32.379Z,41.50
2023-04-18T07:39:32.506Z,41.55
2023-04-18T07:40:32.370Z,41.10
2023-04-18T07:41:32.426Z,41.38
2023-04-18T07:42:32.539Z,41.56
2023-04-18T07:43:32.701Z,41.11
2023-04-18T07:44:33.028Z,41.24
2023-04-18T07:45:32.553Z,41.40
2023-04-18T07:46:32.700Z,41.60
2023-04-18T07:47:33.457Z,41.17
2023-04-18T07:48:32.615Z,41.40
2023-04-18T07:49:32.682Z,41.26
2023-04-18T07:50:32.693Z,42.09
2023-04-18T07:51:32.766Z,42.24
2023-04-18T07:52:32.765Z,42.97
2023-04-18T07:53:32.760Z,42.74
2023-04-18T07:54:32.830Z,42.85
2023-04-18T07:55:32.834Z,42.16
2023-04-18T07:56:32.888Z,41.91
2023-04-18T07:57:33.237Z,41.63
2023-04-18T07:58:33.070Z,41.07
2023-04-18T07:59:33.031Z,39.90
2023-04-18T08:00:33.086Z,39.76
2023-04-18T08:01:33.178Z,39.48
2023-04-18T08:02:33.302Z,38.62
2023-04-18T08:03:33.289Z,38.54
2023-04-18T08:04:33.318Z,38.45
2023-04-18T08:05:33.338Z,38.08
2023-04-18T08:06:33.316Z,37.87
2023-04-18T08:07:33.409Z,37.55
2023-04-18T08:08:33.381Z,37.51
2023-04-18T08:09:33.624Z,37.58
2023-04-18T08:10:33.437Z,37.46
2023-04-18T08:11:33.453Z,36.99
2023-04-18T08:12:33.468Z,36.35
2023-04-18T08:13:33.477Z,36.05
2023-04-18T08:14:33.546Z,36.00
2023-04-18T08:15:33.545Z,36.60
2023-04-18T08:16:33.642Z,35.03
2023-04-18T08:17:33.573Z,34.69
2023-04-18T08:18:33.712Z,34.07
2023-04-18T08:19:33.651Z,34.16
2023-04-18T08:20:33.675Z,34.43
2023-04-18T08:21:33.762Z,34.39
2023-04-18T08:22:33.752Z,34.00
2023-04-18T08:23:33.698Z,34.03
2023-04-18T08:24:33.776Z,33.42
2023-04-18T08:25:33.809Z,34.21
2023-04-18T08:26:34.138Z,33.29
2023-04-18T08:27:33.879Z,33.34
2023-04-18T08:28:33.879Z,33.42
2023-04-18T08:29:33.953Z,32.71
2023-04-18T08:30:33.988Z,33.23
2023-04-18T08:31:34.196Z,32.39
2023-04-18T08:32:34.050Z,32.78
2023-04-18T08:33:34.030Z,32.30
2023-04-18T08:34:34.634Z,31.59
2023-04-18T08:35:34.033Z,31.59
2023-04-18T08:36:34.031Z,32.00
2023-04-18T08:37:34.071Z,32.39
2023-04-18T08:38:34.115Z,32.29
2023-04-18T08:39:34.163Z,32.17
2023-04-18T08:40:34.167Z,31.75
2023-04-18T08:41:34.177Z,31.59
2023-04-18T08:42:34.411Z,31.13
2023-04-18T08:43:34.247Z,30.69
2023-04-18T08:44:34.511Z,30.75
2023-04-18T08:45:34.476Z,30.51
2023-04-18T08:46:34.397Z,31.29
2023-04-18T08:47:34.454Z,32.26
2023-04-18T08:48:34.460Z,31.61
2023-04-18T08:49:34.529Z,30.95
2023-04-18T08:50:34.619Z,31.47
2023-04-18T08:51:34.604Z,30.20
2023-04-18T08:52:34.662Z,30.27
2023-04-18T08:53:34.688Z,31.05
2023-04-18T08:54:35.042Z,31.04
2023-04-18T08:55:34.746Z,30.48
2023-04-18T08:56:34.780Z,30.97
2023-04-18T08:57:34.816Z,30.91
2023-04-18T08:58:34.975Z,29.52
2023-04-18T08:59:35.069Z,30.00
2023-04-18T09:00:34.856Z,30.33
2023-04-18T09:01:34.973Z,30.16
2023-04-18T09:02:35.252Z,30.21
2023-04-18T09:03:34.976Z,29.87
2023-04-18T09:04:34.997Z,29.79
2023-04-18T09:05:35.055Z,29.18
2023-04-18T09:06:35.020Z,30.62
2023-04-18T09:07:34.999Z,30.72
2023-04-18T09:08:35.107Z,30.26
2023-04-18T09:09:35.142Z,29.92
2023-04-18T09:10:35.256Z,29.75
2023-04-18T09:11:35.244Z,30.61
2023-04-18T09:12:36.050Z,30.64
2023-04-18T09:13:35.267Z,30.21
2023-04-18T09:14:35.269Z,29.92
2023-04-18T09:15:35.377Z,30.80
2023-04-18T09:16:35.494Z,30.64
2023-04-18T09:17:35.476Z,31.08
2023-04-18T09:18:35.450Z,31.24
2023-04-18T09:19:35.490Z,30.83
2023-04-18T09:20:35.605Z,30.08
2023-04-18T09:21:35.538Z,29.28
2023-04-18T09:22:35.601Z,29.69
2023-04-18T09:23:35.614Z,29.75
2023-04-18T09:24:35.639Z,29.48
2023-04-18T09:25:36.339Z,30.05
2023-04-18T09:26:35.719Z,31.01
2023-04-18T09:27:35.820Z,29.71
2023-04-18T09:28:35.736Z,29.66
2023-04-18T09:29:35.734Z,30.17
2023-04-18T09:30:36.057Z,29.43
2023-04-18T09:31:35.898Z,29.42
2023-04-18T09:32:35.994Z,29.85
2023-04-18T09:33:35.935Z,30.38
2023-04-18T09:34:36.031Z,30.64
2023-04-18T09:35:36.683Z,29.19
2023-04-18T09:36:36.155Z,29.86
2023-04-18T09:37:36.034Z,28.81
2023-04-18T09:38:36.115Z,29.73
2023-04-18T09:39:36.120Z,29.61
2023-04-18T09:40:36.644Z,30.56
2023-04-18T09:41:36.225Z,30.25
2023-04-18T09:42:36.211Z,30.12
2023-04-18T09:43:36.245Z,30.45
2023-04-18T09:44:36.294Z,29.53
2023-04-18T09:45:36.657Z,30.53
2023-04-18T09:46:36.661Z,29.56
2023-04-18T09:47:36.685Z,29.88
2023-04-18T09:48:36.608Z,29.37
2023-04-18T09:49:36.541Z,29.60
2023-04-18T09:50:36.887Z,30.20
2023-04-18T09:51:36.572Z,30.83
2023-04-18T09:52:36.568Z,29.32
2023-04-18T09:53:37.069Z,29.37
2023-04-18T09:54:36.652Z,29.33
2023-04-18T09:55:37.816Z,29.61
2023-04-18T09:56:36.662Z,29.86
2023-04-18T09:57:36.661Z,29.59
2023-04-18T09:58:36.706Z,29.81
2023-04-18T09:59:36.705Z,30.26
2023-04-18T10:00:37.092Z,28.90
2023-04-18T10:01:36.892Z,29.37
2023-04-18T10:02:36.848Z,29.76
2023-04-18T10:03:36.850Z,30.28
2023-04-18T10:04:36.993Z,29.65
2023-04-18T10:05:37.151Z,29.62
2023-04-18T10:06:36.891Z,29.69
2023-04-18T10:07:36.913Z,29.98
2023-04-18T10:08:36.972Z,30.42
2023-04-18T10:09:44.960Z,29.87
2023-04-18T10:10:38.826Z,30.51
2023-04-18T10:11:36.959Z,30.44
2023-04-18T10:12:36.886Z,30.18
2023-04-18T10:13:36.975Z,30.32
2023-04-18T10:14:36.884Z,30.36
2023-04-18T10:15:37.132Z,30.34
2023-04-18T10:16:37.062Z,30.34
2023-04-18T10:17:37.064Z,29.90
2023-04-18T10:18:37.080Z,29.98
2023-04-18T10:19:37.024Z,30.30
2023-04-18T10:20:37.064Z,29.97
2023-04-18T10:21:37.020Z,30.24
2023-04-18T10:22:37.028Z,30.06
2023-04-18T10:23:37.181Z,29.20
2023-04-18T10:24:37.162Z,29.37
2023-04-18T10:25:37.769Z,29.29
2023-04-18T10:26:37.191Z,29.06
2023-04-18T10:27:37.296Z,29.64
2023-04-18T10:28:38.548Z,29.13
2023-04-18T10:29:37.266Z,28.96
2023-04-18T10:30:37.607Z,29.22
2023-04-18T10:31:37.320Z,29.01
2023-04-18T10:32:37.330Z,28.95
2023-04-18T10:33:41.079Z,29.77
2023-04-18T10:34:38.293Z,28.40
2023-04-18T10:35:39.249Z,27.37
2023-04-18T10:36:37.326Z,27.22
2023-04-18T10:37:37.313Z,27.24
2023-04-18T10:38:37.290Z,27.92
2023-04-18T10:39:37.262Z,27.34
2023-04-18T10:40:37.766Z,27.53
2023-04-18T10:41:37.308Z,27.17
2023-04-18T10:42:37.312Z,26.77
2023-04-18T10:43:37.240Z,27.28
2023-04-18T10:44:37.231Z,27.80
2023-04-18T10:45:37.246Z,28.39
2023-04-18T10:46:37.730Z,27.78
2023-04-18T10:47:37.332Z,26.41
2023-04-18T10:48:38.630Z,27.41
2023-04-18T10:49:37.196Z,26.65
2023-04-18T10:50:37.630Z,27.19
2023-04-18T10:51:37.157Z,26.92
2023-04-18T10:52:37.173Z,27.07
2023-04-18T10:53:37.267Z,27.19
2023-04-18T10:54:37.148Z,26.57
2023-04-18T10:55:37.167Z,27.26
2023-04-18T10:56:38.139Z,26.54
2023-04-18T10:57:37.571Z,26.15
2023-04-18T10:58:44.902Z,26.93
2023-04-18T10:59:37.504Z,25.72
2023-04-18T11:00:37.184Z,25.88
2023-04-18T11:01:37.848Z,25.58
2023-04-18T11:02:37.333Z,25.79
2023-04-18T11:03:37.256Z,25.67
2023-04-18T11:04:37.194Z,25.39
2023-04-18T11:05:37.111Z,25.46
2023-04-18T11:06:37.147Z,24.95
2023-04-18T11:07:37.052Z,24.84
2023-04-18T11:08:37.138Z,24.60
2023-04-18T11:09:37.201Z,25.26
2023-04-18T11:10:37.068Z,25.43
2023-04-18T11:11:37.095Z,24.89
2023-04-18T11:12:37.103Z,24.85
2023-04-18T11:13:37.006Z,25.71
2023-04-18T11:14:37.070Z,25.81
2023-04-18T11:15:37.072Z,23.70
2023-04-18T11:16:37.412Z,24.50
2023-04-18T11:17:37.256Z,24.35
2023-04-18T11:18:37.217Z,24.28
2023-04-18T11:19:37.204Z,24.08
2023-04-18T11:20:37.312Z,23.92
2023-04-18T11:21:37.645Z,23.08
2023-04-18T11:22:37.263Z,23.02
2023-04-18T11:23:37.311Z,23.20
2023-04-18T11:24:37.269Z,23.37
2023-04-18T11:25:37.581Z,23.32
2023-04-18T11:26:37.622Z,23.58
2023-04-18T11:27:37.788Z,23.22
2023-04-18T11:28:37.404Z,23.69
2023-04-18T11:29:37.533Z,23.20
2023-04-18T11:30:37.752Z,24.89
2023-04-18T11:31:38.181Z,24.70
2023-04-18T11:32:39.018Z,25.32
2023-04-18T11:33:38.237Z,24.45
2023-04-18T11:34:38.006Z,24.55
2023-04-18T11:35:37.943Z,25.13
2023-04-18T11:36:38.136Z,24.01
2023-04-18T11:37:37.701Z,24.18
2023-04-18T11:38:37.745Z,24.28
2023-04-18T11:39:37.757Z,23.72
2023-04-18T11:40:37.782Z,24.14
2023-04-18T11:41:38.181Z,24.25
2023-04-18T11:42:37.855Z,23.59
2023-04-18T11:43:37.890Z,23.91
2023-04-18T11:44:37.906Z,23.61
2023-04-18T11:45:37.960Z,24.10
2023-04-18T11:46:38.070Z,23.78
2023-04-18T11:47:37.997Z,24.42
2023-04-18T11:48:38.041Z,22.90
2023-04-18T11:49:37.992Z,23.05
2023-04-18T11:50:38.027Z,22.48
2023-04-18T11:51:38.093Z,22.67
2023-04-18T11:52:38.057Z,23.43
2023-04-18T11:53:38.147Z,23.41
2023-04-18T11:54:38.169Z,22.86
2023-04-18T11:55:38.171Z,22.01
2023-04-18T11:56:38.214Z,22.48
2023-04-18T11:57:38.221Z,23.05
2023-04-18T11:58:38.261Z,22.90
2023-04-18T11:59:38.514Z,22.47
2023-04-18T12:00:38.337Z,23.45
2023-04-18T12:01:38.453Z,23.32
2023-04-18T12:02:38.435Z,22.67
2023-04-18T12:03:38.640Z,22.67
2023-04-18T12:04:38.723Z,22.78
2023-04-18T12:05:38.744Z,22.44
2023-04-18T12:06:38.503Z,23.14
2023-04-18T12:07:38.484Z,21.86
2023-04-18T12:08:38.518Z,22.23
2023-04-18T12:09:38.543Z,22.61
2023-04-18T12:10:38.579Z,22.48
2023-04-18T12:11:38.604Z,23.28
2023-04-18T12:12:38.624Z,22.95
2023-04-18T12:13:38.708Z,21.93
2023-04-18T12:14:38.698Z,22.58
2023-04-18T12:15:38.853Z,21.09
2023-04-18T12:16:38.773Z,21.11
2023-04-18T12:17:38.806Z,21.48
2023-04-18T12:18:38.805Z,21.56
2023-04-18T12:19:38.800Z,21.71
2023-04-18T12:20:38.857Z,22.98
2023-04-18T12:21:38.857Z,22.84
2023-04-18T12:22:38.871Z,23.05
2023-04-18T12:23:38.883Z,22.77
2023-04-18T12:24:38.928Z,22.98
2023-04-18T12:25:38.929Z,22.78
2023-04-18T12:26:39.027Z,21.64
2023-04-18T12:27:39.003Z,20.94
2023-04-18T12:28:39.005Z,22.40
2023-04-18T12:29:39.029Z,21.31
2023-04-18T12:30:39.102Z,21.49
2023-04-18T12:31:39.141Z,22.00
2023-04-18T12:32:39.173Z,20.86
2023-04-18T12:33:39.137Z,21.31
2023-04-18T12:34:39.157Z,21.87
2023-04-18T12:35:39.180Z,21.18
2023-04-18T12:36:39.282Z,22.96
2023-04-18T12:37:39.220Z,22.15
2023-04-18T12:38:39.605Z,22.36
2023-04-18T12:39:39.381Z,22.82
2023-04-18T12:40:39.362Z,21.90
2023-04-18T12:41:39.664Z,22.19
2023-04-18T12:42:39.429Z,21.66
2023-04-18T12:43:39.465Z,21.35
2023-04-18T12:44:39.437Z,21.85
2023-04-18T12:45:39.463Z,22.30
2023-04-18T12:46:39.531Z,22.98
2023-04-18T12:47:39.559Z,22.13
2023-04-18T12:48:39.534Z,23.84
2023-04-18T12:49:39.548Z,22.79
2023-04-18T12:50:39.580Z,23.22
2023-04-18T12:51:39.652Z,23.48
2023-04-18T12:52:39.648Z,22.61
2023-04-18T12:53:39.671Z,22.62
2023-04-18T12:54:39.652Z,23.42
2023-04-18T12:55:39.695Z,23.69
2023-04-18T12:56:39.671Z,23.15